HTC weather

Torre Caballito Heliport
Cuauhtémoc, Distrito Federal, Mexico

Public forecast

Using degrees Celsius for public forecast. Weather courtesy of forecast.io.

METAR (pilot weather report)

Closest report is Licenciado Benito Juarez International Airport, 4.3 nm (8.0 km) E. Retrieved 2019/08/21 09:46 UTC (31 minutes ago):

MMMX 210946Z 29007KT 12SM BKN200 14/09 A3032 NOSIG RMK 8/002

TAF (pilot weather forecast)

Closest forecast is Licenciado Benito Juarez International Airport, 4.3 nm (8.0 km) E. Retrieved 2019/08/21 06:34 UTC (4 hours ago):

TAF MMMX 210428Z 2106/2212 02005KT P6SM SCT020 SCT080 SCT200 TX25/2121Z TN15/2112Z FM211800 08010KT P6SM SCT030 SCT200 TEMPO 2122/2202 4SM TSRA BKN020CB